Baiao, Brazil
Current Conditions -  °F | °C
As of 4:00 PM on Tuesday 27 Jan 2015 (Local Time) from SBBE Reporting Station
Moderate Rain Moderate Rain  
Wind Chill: 77°   Ceiling: 1700
Heat Index: 78°   Visibility: 6mi
Dew Point: 75°   Wind: 8mph
Humidity: 94%   Direction: 350°N
Pressure: 29.8"   Gusts: NA
Location:  2.79°S, 49.67°W
Report Text: SBBE 271900Z 35007KT 9000 RA BKN017 FEW020TCU 25/24 Q1009 RERA
Loading
Personal Weather Stations






























Interactive Weather Map New forecast layout! Learn more

10-Day Weather Forecast

Advertisements
Track Severe Weather on mobile